Virgil, KS

1:34 PM CDT on July 23, 2014 (GMT -0500)
Emporia Municipal (KEMP) Elev 1207 ft | 38.33 °N, 96.19 °W | Change Station

Current weather conditions updated 41 minutes ago

Clear
Clear
76 °F
Feels Like 76 °F
N
15
Wind Variable Wind from ENE

Today is forecast to be Much Cooler than yesterday.

Today
High -- | Low -- °F
--% Chance of Precip.
Yesterday
High -- | Low -- °F
Precip. -- in
6:20 AM 8:40 PM
Waning Crescent, 9% visible
Pressure 30.11 in
Visibility 10.0 miles
Clouds Clear
Dew Point 69 °F
Humidity 79%
Rainfall 0.31 in
Snow Depth Not available.
UV 11 out of 12
Pollen 5.40 out of 12
Air Quality Not available.
Flu Activity Not available.
METAR KEMP 231753Z AUTO 06013KT 10SM CLR 24/21 A3014 RMK AO2 SLP194 60031 T02440206 10256 20206 56025

More Conditions Fewer Conditions

Pressure 30.11 in
Visibility 10.0 miles
Clouds Clear
Dew Point 69 °F
Humidity 79%
Rainfall 0.31 in
Snow Depth Not available.
UV 11 out of 12
Pollen 5.40 out of 12
Air Quality Not available.
Flu Activity Not available.
METAR KEMP 231753Z AUTO 06013KT 10SM CLR 24/21 A3014 RMK AO2 SLP194 60031 T02440206 10256 20206 56025

More Conditions Fewer Conditions

10-Day Weather Forecast

Almanac

Astronomy

Jul. 23, 2014 Rise Set
Actual Time 6:20 AM CDT 8:40 PM CDT
Civil Twilight 5:50 AM CDT 9:10 PM CDT
Nautical Twilight 5:13 AM CDT 9:47 PM CDT
Astronomical Twilight 4:32 AM CDT 10:27 PM CDT
Moon 3:39 AM CDT 6:10 PM CDT
Length of Visible Light 15h 20m
Length of Day
14h 20m
Tomorrow will be 1m 34s shorter.
Waning Crescent, 9% of the Moon is Illuminated
Today
Waning Crescent
Jul 26
New
Aug 3
First Quarter
Aug 10
Full
Aug 17
Last Quarter

Today's Extremes

State Highs State Lows

Community

WunderPhotos

Upload Photos

1,736,704 photos uploaded!

Nearby

Snow Depth

Station Depth Elevation
No new snow has been reported.

Earthquake Activity

City Distance Mag. Time & Date
Guthrie, Oklahoma 155 miles 2.9 8:59 PM CDT
2014-07-17
Perry, Oklahoma 139 miles 2.8 8:37 PM CDT
2014-07-17
Caldwell, Kansas 110 miles 3.6 5:40 AM CDT
2014-07-17
Perry, Oklahoma 137 miles 2.5 2:34 AM CDT
2014-07-17
Minimum magnitude displayed is 2.5.

Coastal Water Temperatures

Place Temperature
No Stations Reporting

Nearby Weather Stations

Station Location Temp. Heat Index Dew Point Humidity Wind Precip. Elev Updated Type
Toronto, KS, Toronto, KS 72.3 °F - 71 °F 95% SE  at  0.0 mph 0.01 in / hr 971 ft 1:30 PM CDT Normal
HADS VERDIGRIS RIVER AT TORONTO KS, Toronto, KS 72 °F 70 °F 68 °F 87% ESE  at  3 mph 0.01 in / hr 960 ft 12:30 PM CDT MADIS
HADS FALL RIVER LAKE NEAR FALL RIVER KS, Fall River, KS 73 °F - 73 °F 100% ENE  at  4 mph 0.02 in / hr 1020 ft 1:00 PM CDT MADIS
Gridley Fire Station, Gridley, KS 80.5 °F 85 °F 73 °F 79% ENE  at  4.0 mph 0.00 in / hr 1161 ft 1:31 PM CDT Normal
Buffalo, Yates Center, KS 72.5 °F - 71 °F 95% ENE  at  6.3 mph - / hr 935 ft 1:26 PM CDT Normal
MesoWest ROPER , Buffalo, KS 80 °F 78 °F - - North  at  - 0.00 in / hr 889 ft 10:45 AM CDT MADIS

Show More Stations Show Fewer Stations